createdAt,value
2019-04-19T00:02:15.293Z,13.20
2019-04-19T00:04:48.470Z,13.20
2019-04-19T00:07:20.565Z,13.10
2019-04-19T00:09:51.776Z,13.10
2019-04-19T00:12:21.878Z,13.20
2019-04-19T00:14:36.019Z,13.10
2019-04-19T00:17:05.491Z,13.00
2019-04-19T00:19:46.931Z,12.90
2019-04-19T00:22:20.961Z,12.80
2019-04-19T00:24:26.911Z,12.60
2019-04-19T00:26:53.274Z,12.60
2019-04-19T00:29:29.710Z,12.50
2019-04-19T00:32:06.192Z,12.40
2019-04-19T00:34:16.516Z,12.50
2019-04-19T00:36:42.881Z,12.60
2019-04-19T00:39:39.939Z,12.60
2019-04-19T00:42:34.467Z,12.70
2019-04-19T00:45:04.324Z,12.70
2019-04-19T00:47:28.316Z,12.80
2019-04-19T00:49:56.967Z,12.80
2019-04-19T00:52:30.993Z,12.80
2019-04-19T00:54:50.604Z,12.70
2019-04-19T00:57:17.368Z,12.60
2019-04-19T00:59:40.504Z,12.50
2019-04-19T01:02:07.443Z,12.30
2019-04-19T01:04:33.172Z,12.20
2019-04-19T01:07:00.968Z,12.10
2019-04-19T01:09:38.562Z,12.00
2019-04-19T01:12:10.615Z,12.00
2019-04-19T01:14:35.679Z,12.00
2019-04-19T01:17:07.494Z,12.00
2019-04-19T01:19:20.810Z,12.00
2019-04-19T01:21:47.084Z,11.80
2019-04-19T01:24:13.503Z,11.80
2019-04-19T01:26:45.938Z,11.80
2019-04-19T01:29:12.036Z,11.70
2019-04-19T01:31:36.044Z,11.60
2019-04-19T01:34:09.109Z,11.60
2019-04-19T01:36:33.833Z,11.50
2019-04-19T01:39:18.066Z,11.50
2019-04-19T01:41:41.791Z,11.40
2019-04-19T01:44:16.196Z,11.30
2019-04-19T01:46:52.528Z,11.20
2019-04-19T01:49:19.213Z,11.20
2019-04-19T01:51:58.645Z,11.40
2019-04-19T01:54:32.440Z,11.30
2019-04-19T01:56:51.979Z,11.30
2019-04-19T01:59:13.621Z,11.30
2019-04-19T02:01:40.265Z,11.20
2019-04-19T02:04:13.526Z,11.10
2019-04-19T02:06:39.770Z,11.00
2019-04-19T02:09:08.994Z,10.90
2019-04-19T02:11:49.479Z,10.90
2019-04-19T02:14:13.500Z,10.90
2019-04-19T02:16:36.926Z,10.90
2019-04-19T02:19:10.231Z,10.80
2019-04-19T02:21:36.349Z,10.60
2019-04-19T02:24:02.569Z,10.30
2019-04-19T02:26:30.051Z,10.20
2019-04-19T02:29:02.655Z,9.90
2019-04-19T02:31:49.630Z,9.80
2019-04-19T02:36:51.865Z,9.80
2019-04-19T02:41:55.166Z,9.70
2019-04-19T02:46:55.926Z,9.80
2019-04-19T02:49:21.814Z,9.70
2019-04-19T02:51:39.317Z,9.60
2019-04-19T02:54:11.887Z,9.50
2019-04-19T02:59:30.776Z,9.40
2019-04-19T03:02:04.259Z,9.30
2019-04-19T03:04:50.109Z,9.40
2019-04-19T03:06:41.188Z,9.50
2019-04-19T03:08:58.611Z,9.40
2019-04-19T03:11:43.317Z,9.40
2019-04-19T03:14:07.910Z,9.30
2019-04-19T03:16:45.989Z,9.20
2019-04-19T03:19:01.568Z,9.30
2019-04-19T03:21:33.084Z,9.20
2019-04-19T03:24:02.255Z,9.20
2019-04-19T03:26:35.103Z,9.30
2019-04-19T03:28:48.505Z,9.30
2019-04-19T03:31:40.886Z,9.20
2019-04-19T03:34:03.193Z,9.30
2019-04-19T03:36:29.533Z,9.30
2019-04-19T03:38:51.577Z,9.30
2019-04-19T03:41:40.478Z,9.30
2019-04-19T03:43:58.355Z,9.40
2019-04-19T03:46:23.274Z,9.50
2019-04-19T03:48:47.666Z,9.40
2019-04-19T03:51:18.404Z,9.40
2019-04-19T03:53:51.462Z,9.20
2019-04-19T03:56:14.026Z,9.00
2019-04-19T03:58:26.884Z,8.90
2019-04-19T04:00:53.867Z,8.70
2019-04-19T04:03:28.007Z,8.60
2019-04-19T04:05:50.389Z,8.60
2019-04-19T04:08:23.061Z,8.60
2019-04-19T04:11:07.000Z,8.70
2019-04-19T04:13:51.038Z,8.70
2019-04-19T04:16:30.701Z,8.90
2019-04-19T04:18:49.325Z,8.90
2019-04-19T04:21:16.300Z,8.80
2019-04-19T04:23:46.351Z,8.90
2019-04-19T04:26:14.768Z,8.70
2019-04-19T04:28:53.001Z,8.90
2019-04-19T04:31:17.182Z,8.70
2019-04-19T04:33:45.937Z,8.70
2019-04-19T04:36:25.318Z,8.80
2019-04-19T04:38:38.004Z,8.70
2019-04-19T04:41:05.715Z,8.70
2019-04-19T04:43:39.142Z,8.70
2019-04-19T04:46:21.096Z,8.70
2019-04-19T04:48:49.576Z,8.80
2019-04-19T04:51:27.478Z,8.80
2019-04-19T04:53:39.625Z,8.80
2019-04-19T04:56:12.569Z,8.80
2019-04-19T04:58:42.767Z,8.70
2019-04-19T05:01:12.426Z,8.50
2019-04-19T05:03:54.342Z,8.40
2019-04-19T05:06:22.863Z,8.30
2019-04-19T05:08:52.915Z,8.40
2019-04-19T05:11:16.021Z,8.40
2019-04-19T05:13:54.489Z,8.60
2019-04-19T05:16:21.061Z,8.80
2019-04-19T05:18:38.983Z,9.00
2019-04-19T05:21:12.266Z,9.10
2019-04-19T05:23:43.670Z,9.30
2019-04-19T05:26:21.390Z,9.50
2019-04-19T05:28:33.328Z,9.70
2019-04-19T05:30:51.948Z,9.80
2019-04-19T05:33:25.325Z,10.00
2019-04-19T05:36:04.266Z,10.00
2019-04-19T05:38:30.447Z,10.10
2019-04-19T05:41:02.456Z,10.20
2019-04-19T05:43:56.939Z,10.20
2019-04-19T05:46:15.496Z,10.40
2019-04-19T05:48:30.444Z,10.60
2019-04-19T05:51:16.654Z,10.80
2019-04-19T05:53:25.467Z,11.00
2019-04-19T05:55:43.537Z,11.00
2019-04-19T05:58:20.334Z,11.30
2019-04-19T06:00:54.802Z,11.50
2019-04-19T06:03:16.405Z,11.70
2019-04-19T06:06:05.759Z,11.80
2019-04-19T06:08:13.208Z,12.00
2019-04-19T06:10:35.413Z,12.10
2019-04-19T06:13:05.303Z,12.30
2019-04-19T06:15:48.442Z,12.40
2019-04-19T06:18:26.127Z,12.50
2019-04-19T06:21:04.649Z,12.60
2019-04-19T06:23:34.662Z,12.90
2019-04-19T06:26:24.971Z,13.00
2019-04-19T06:30:50.906Z,13.20
2019-04-19T06:33:23.911Z,13.20
2019-04-19T06:35:41.576Z,13.40
2019-04-19T06:37:59.117Z,13.50
2019-04-19T06:40:29.857Z,13.60
2019-04-19T06:43:02.726Z,13.70
2019-04-19T06:45:34.427Z,13.80
2019-04-19T06:48:00.070Z,13.90
2019-04-19T06:50:24.484Z,14.00
2019-04-19T06:52:46.714Z,14.10
2019-04-19T06:55:21.207Z,14.20
2019-04-19T06:57:51.043Z,14.40
2019-04-19T07:00:23.710Z,14.40
2019-04-19T07:02:39.270Z,14.60
2019-04-19T07:05:18.710Z,14.60
2019-04-19T07:07:59.449Z,14.80
2019-04-19T07:10:35.194Z,14.90
2019-04-19T07:12:51.341Z,14.90
2019-04-19T07:15:30.093Z,14.90
2019-04-19T07:17:42.215Z,15.00
2019-04-19T07:20:11.287Z,15.10
2019-04-19T07:22:44.960Z,15.20
2019-04-19T07:25:21.607Z,15.30
2019-04-19T07:27:34.666Z,15.40
2019-04-19T07:29:50.150Z,15.50
2019-04-19T07:32:25.560Z,15.70
2019-04-19T07:34:57.028Z,15.80
2019-04-19T07:37:30.124Z,16.00
2019-04-19T07:40:05.696Z,16.00
2019-04-19T07:42:27.518Z,16.30
2019-04-19T07:44:48.959Z,16.60
2019-04-19T07:47:25.395Z,16.60
2019-04-19T07:49:48.551Z,17.00
2019-04-19T07:52:17.273Z,17.40
2019-04-19T07:54:38.652Z,17.40
2019-04-19T07:57:40.112Z,17.30
2019-04-19T08:00:18.872Z,17.10
2019-04-19T08:02:49.771Z,17.00
2019-04-19T08:05:15.161Z,17.00
2019-04-19T08:10:12.491Z,17.20
2019-04-19T08:15:18.316Z,17.50
2019-04-19T08:27:22.766Z,17.70
2019-04-19T08:29:40.781Z,17.90
2019-04-19T08:31:58.613Z,18.00
2019-04-19T08:34:27.691Z,18.10
2019-04-19T08:36:59.442Z,18.20
2019-04-19T08:39:43.621Z,18.00
2019-04-19T08:42:12.028Z,18.20
2019-04-19T08:44:31.790Z,18.30
2019-04-19T08:47:02.165Z,18.60
2019-04-19T08:49:37.152Z,18.80
2019-04-19T08:52:08.218Z,18.70
2019-04-19T08:54:50.725Z,18.80
2019-04-19T08:57:02.936Z,18.90
2019-04-19T09:00:02.200Z,19.00
2019-04-19T09:02:11.159Z,19.00
2019-04-19T09:04:42.657Z,19.00
2019-04-19T09:07:34.099Z,19.20
2019-04-19T09:09:37.211Z,19.20
2019-04-19T09:12:06.792Z,19.40
2019-04-19T09:14:38.068Z,19.60
2019-04-19T09:17:07.227Z,19.60
2019-04-19T09:19:45.437Z,19.30
2019-04-19T09:21:48.783Z,19.30
2019-04-19T09:24:12.885Z,19.70
2019-04-19T09:26:53.065Z,19.90
2019-04-19T09:29:32.361Z,20.10
2019-04-19T09:31:44.218Z,20.00
2019-04-19T09:34:04.724Z,19.90
2019-04-19T09:36:35.571Z,19.90
2019-04-19T09:39:14.727Z,19.90
2019-04-19T09:41:31.635Z,20.00
2019-04-19T09:44:01.997Z,20.30
2019-04-19T09:46:21.197Z,20.30
2019-04-19T09:49:05.210Z,20.50
2019-04-19T09:51:33.845Z,20.40
2019-04-19T09:54:09.689Z,20.70
2019-04-19T09:56:33.773Z,20.80
2019-04-19T09:58:53.156Z,21.00
2019-04-19T10:01:08.786Z,21.20
2019-04-19T10:03:41.831Z,21.40
2019-04-19T10:06:04.759Z,21.00
2019-04-19T10:08:32.113Z,21.00
2019-04-19T10:10:58.832Z,21.10
2019-04-19T10:13:25.825Z,21.40
2019-04-19T10:16:00.691Z,21.30
2019-04-19T10:18:28.266Z,21.40
2019-04-19T10:21:20.302Z,21.60
2019-04-19T10:23:41.428Z,21.50
2019-04-19T10:26:15.919Z,21.50
2019-04-19T10:28:42.245Z,21.80
2019-04-19T10:31:13.445Z,21.90
2019-04-19T10:33:48.086Z,21.70
2019-04-19T10:36:08.699Z,21.80
2019-04-19T10:38:35.866Z,22.10
2019-04-19T10:41:03.803Z,22.10
2019-04-19T10:43:30.209Z,22.30
2019-04-19T10:45:57.487Z,22.10
2019-04-19T10:48:23.773Z,22.30
2019-04-19T10:50:53.875Z,22.10
2019-04-19T10:53:22.066Z,22.50
2019-04-19T10:55:54.049Z,22.40
2019-04-19T10:58:21.350Z,22.60
2019-04-19T11:00:47.695Z,23.00
2019-04-19T11:03:14.879Z,22.80
2019-04-19T11:05:47.399Z,22.40
2019-04-19T11:08:14.816Z,22.50
2019-04-19T11:10:41.418Z,22.60
2019-04-19T11:13:08.488Z,23.00
2019-04-19T11:15:34.787Z,23.10
2019-04-19T11:18:03.601Z,23.20
2019-04-19T11:20:38.416Z,23.10
2019-04-19T11:22:58.227Z,23.00
2019-04-19T11:25:24.349Z,22.90
2019-04-19T11:27:52.817Z,23.00
2019-04-19T11:30:32.937Z,23.00
2019-04-19T11:33:01.040Z,23.20
2019-04-19T11:35:29.632Z,23.20
2019-04-19T11:37:57.140Z,23.50
2019-04-19T11:40:24.904Z,23.50
2019-04-19T11:42:51.277Z,23.90
2019-04-19T11:45:18.161Z,23.80
2019-04-19T11:47:45.126Z,23.70
2019-04-19T11:50:13.827Z,23.60
2019-04-19T11:52:42.165Z,23.40
2019-04-19T11:55:09.016Z,23.70
2019-04-19T11:57:40.859Z,23.50
2019-04-19T12:00:27.388Z,23.50
2019-04-19T12:02:56.073Z,23.60
2019-04-19T12:05:26.233Z,23.60
2019-04-19T12:07:50.572Z,23.50
2019-04-19T12:10:16.930Z,23.80
2019-04-19T12:12:43.398Z,23.90
2019-04-19T12:15:10.327Z,24.00
2019-04-19T12:17:36.645Z,23.90
2019-04-19T12:20:07.395Z,23.90
2019-04-19T12:22:33.646Z,23.90
2019-04-19T12:24:59.847Z,23.90
2019-04-19T12:27:26.055Z,24.00
2019-04-19T12:29:54.942Z,24.00
2019-04-19T12:32:23.128Z,24.00
2019-04-19T12:34:50.743Z,24.30
2019-04-19T12:37:17.369Z,24.30
2019-04-19T12:39:43.713Z,24.30
2019-04-19T12:42:11.789Z,24.30
2019-04-19T12:44:39.352Z,24.30
2019-04-19T12:47:06.951Z,24.60
2019-04-19T12:49:33.317Z,24.80
2019-04-19T12:51:59.726Z,24.60
2019-04-19T12:54:26.064Z,24.90
2019-04-19T12:56:52.283Z,25.10
2019-04-19T12:59:20.476Z,24.80
2019-04-19T13:01:48.676Z,24.70
2019-04-19T13:04:17.911Z,24.60
2019-04-19T13:06:46.655Z,24.70
2019-04-19T13:09:13.020Z,24.90
2019-04-19T13:11:39.344Z,24.50
2019-04-19T13:14:05.910Z,24.50
2019-04-19T13:16:32.493Z,24.30
2019-04-19T13:18:58.825Z,24.40
2019-04-19T13:21:26.210Z,24.80
2019-04-19T13:23:52.740Z,24.50
2019-04-19T13:26:19.438Z,24.50
2019-04-19T13:28:45.579Z,24.90
2019-04-19T13:31:13.839Z,24.70
2019-04-19T13:33:40.020Z,24.70
2019-04-19T13:36:15.191Z,25.00
2019-04-19T13:39:01.350Z,24.90
2019-04-19T13:41:38.889Z,24.80
2019-04-19T13:44:05.195Z,24.80
2019-04-19T13:46:32.752Z,24.50
2019-04-19T13:48:59.215Z,24.30
2019-04-19T13:51:26.701Z,24.30
2019-04-19T13:53:54.434Z,24.50
2019-04-19T13:56:20.954Z,24.50
2019-04-19T13:58:47.605Z,24.80
2019-04-19T14:01:14.393Z,25.00
2019-04-19T14:03:41.478Z,25.00
2019-04-19T14:06:08.578Z,24.90
2019-04-19T14:08:35.754Z,24.70
2019-04-19T14:11:03.363Z,24.80
2019-04-19T14:13:30.642Z,25.30
2019-04-19T14:15:56.862Z,25.20
2019-04-19T14:18:22.993Z,25.20
2019-04-19T14:20:51.422Z,24.80
2019-04-19T14:23:17.459Z,24.70
2019-04-19T14:25:45.303Z,25.20
2019-04-19T14:28:11.755Z,25.50
2019-04-19T14:30:37.916Z,25.10
2019-04-19T14:33:04.526Z,25.60
2019-04-19T14:35:32.135Z,25.50
2019-04-19T14:37:58.860Z,25.90
2019-04-19T14:40:25.811Z,25.30
2019-04-19T14:42:52.328Z,24.90
2019-04-19T14:45:19.841Z,25.00
2019-04-19T14:47:46.691Z,25.20
2019-04-19T14:50:14.865Z,25.30
2019-04-19T14:52:42.195Z,25.20
2019-04-19T14:55:10.098Z,25.00
2019-04-19T14:57:36.839Z,24.70
2019-04-19T15:00:09.356Z,25.00
2019-04-19T15:02:45.704Z,24.50
2019-04-19T15:05:25.721Z,24.30
2019-04-19T15:07:52.625Z,24.40
2019-04-19T15:10:19.699Z,24.60
2019-04-19T15:12:47.311Z,24.60
2019-04-19T15:15:14.594Z,24.50
2019-04-19T15:17:41.041Z,24.30
2019-04-19T15:20:08.666Z,24.10
2019-04-19T15:22:35.042Z,24.00
2019-04-19T15:25:02.549Z,23.90
2019-04-19T15:27:28.857Z,23.80
2019-04-19T15:29:55.291Z,23.70
2019-04-19T15:32:22.319Z,23.70
2019-04-19T15:34:49.631Z,23.60
2019-04-19T15:37:15.949Z,23.50
2019-04-19T15:39:42.225Z,23.60
2019-04-19T15:42:08.664Z,23.60
2019-04-19T15:44:35.008Z,23.60
2019-04-19T15:47:04.250Z,23.60
2019-04-19T15:49:29.975Z,23.50
2019-04-19T15:51:57.543Z,23.40
2019-04-19T15:54:23.825Z,23.30
2019-04-19T15:56:50.241Z,23.20
2019-04-19T15:59:16.974Z,23.10
2019-04-19T16:01:52.326Z,23.10
2019-04-19T16:04:34.230Z,23.30
2019-04-19T16:07:12.265Z,23.20
2019-04-19T16:10:01.999Z,23.20
2019-04-19T16:12:35.692Z,23.10
2019-04-19T16:15:04.103Z,23.10
2019-04-19T16:17:31.441Z,23.00
2019-04-19T16:19:57.714Z,22.80
2019-04-19T16:22:24.510Z,22.90
2019-04-19T16:24:51.522Z,22.80
2019-04-19T16:27:18.131Z,22.80
2019-04-19T16:29:49.559Z,22.70
2019-04-19T16:32:12.520Z,22.70
2019-04-19T16:34:38.879Z,22.60
2019-04-19T16:37:06.203Z,22.50
2019-04-19T16:39:33.305Z,22.40
2019-04-19T16:42:00.857Z,22.40
2019-04-19T16:44:27.562Z,22.40
2019-04-19T16:46:55.038Z,22.40
2019-04-19T16:49:22.571Z,22.30
2019-04-19T16:51:54.009Z,22.20
2019-04-19T16:54:18.315Z,22.10
2019-04-19T16:56:47.995Z,22.10
2019-04-19T16:59:14.423Z,22.00
2019-04-19T17:01:41.094Z,22.00
2019-04-19T17:04:07.997Z,21.90
2019-04-19T17:06:34.392Z,21.90
2019-04-19T17:09:00.776Z,21.80
2019-04-19T17:11:26.857Z,21.70
2019-04-19T17:13:53.213Z,21.70
2019-04-19T17:16:25.280Z,21.60
2019-04-19T17:19:03.155Z,21.50
2019-04-19T17:21:29.608Z,21.50
2019-04-19T17:23:55.905Z,21.40
2019-04-19T17:26:22.673Z,21.30
2019-04-19T17:28:48.921Z,21.30
2019-04-19T17:31:16.113Z,21.30
2019-04-19T17:33:42.510Z,21.20
2019-04-19T17:36:10.204Z,21.20
2019-04-19T17:38:44.671Z,21.10
2019-04-19T17:41:07.391Z,21.00
2019-04-19T17:43:32.795Z,20.90
2019-04-19T17:46:00.055Z,20.70
2019-04-19T17:48:26.473Z,20.70
2019-04-19T17:50:53.669Z,20.60
2019-04-19T17:53:20.505Z,20.60
2019-04-19T17:55:50.953Z,20.50
2019-04-19T17:58:15.228Z,20.40
2019-04-19T18:00:46.173Z,20.40
2019-04-19T18:03:13.129Z,20.40
2019-04-19T18:05:40.217Z,20.40
2019-04-19T18:08:06.493Z,20.20
2019-04-19T18:10:40.213Z,20.20
2019-04-19T18:13:01.256Z,20.10
2019-04-19T18:15:29.787Z,20.00
2019-04-19T18:18:02.228Z,20.00
2019-04-19T18:20:25.229Z,20.00
2019-04-19T18:23:01.944Z,20.00
2019-04-19T18:25:20.184Z,19.90
2019-04-19T18:27:50.407Z,19.90
2019-04-19T18:30:15.938Z,19.80
2019-04-19T18:32:48.337Z,19.70
2019-04-19T18:35:24.286Z,19.60
2019-04-19T18:37:45.758Z,19.50
2019-04-19T18:40:13.140Z,19.40
2019-04-19T18:42:51.062Z,19.20
2019-04-19T18:45:15.343Z,19.10
2019-04-19T18:47:36.765Z,19.00
2019-04-19T18:50:06.906Z,18.90
2019-04-19T18:52:42.323Z,18.80
2019-04-19T18:55:08.401Z,18.70
2019-04-19T18:57:33.938Z,18.60
2019-04-19T19:00:01.583Z,18.50
2019-04-19T19:02:28.192Z,18.50
2019-04-19T19:05:01.153Z,18.60
2019-04-19T19:07:25.205Z,18.50
2019-04-19T19:09:54.201Z,18.50
2019-04-19T19:12:18.700Z,18.50
2019-04-19T19:14:49.160Z,18.50
2019-04-19T19:17:16.752Z,18.40
2019-04-19T19:19:41.636Z,18.40
2019-04-19T19:22:08.532Z,18.30
2019-04-19T19:24:52.514Z,18.30
2019-04-19T19:27:11.850Z,18.20
2019-04-19T19:29:32.285Z,18.10
2019-04-19T19:32:04.781Z,18.00
2019-04-19T19:34:30.132Z,18.00
2019-04-19T19:36:57.127Z,17.90
2019-04-19T19:39:31.578Z,17.80
2019-04-19T19:44:35.131Z,17.60
2019-04-19T19:47:29.044Z,17.50
2019-04-19T19:50:07.462Z,17.40
2019-04-19T19:52:02.883Z,17.40
2019-04-19T19:54:46.093Z,17.30
2019-04-19T19:57:09.979Z,17.30
2019-04-19T19:59:27.125Z,17.30
2019-04-19T20:02:03.655Z,17.30
2019-04-19T20:04:11.093Z,17.20
2019-04-19T20:06:38.793Z,17.10
2019-04-19T20:09:12.257Z,17.10
2019-04-19T20:11:36.054Z,17.10
2019-04-19T20:14:04.425Z,17.00
2019-04-19T20:16:33.265Z,17.00
2019-04-19T20:19:01.747Z,16.80
2019-04-19T20:21:26.731Z,16.80
2019-04-19T20:24:04.353Z,16.80
2019-04-19T20:26:29.108Z,16.90
2019-04-19T20:28:49.938Z,16.80
2019-04-19T20:31:27.635Z,16.80
2019-04-19T20:33:50.155Z,16.80
2019-04-19T20:36:12.722Z,16.70
2019-04-19T20:38:47.818Z,16.70
2019-04-19T20:41:10.244Z,16.60
2019-04-19T20:43:49.997Z,16.50
2019-04-19T20:46:10.759Z,16.40
2019-04-19T20:48:31.732Z,16.30
2019-04-19T20:51:08.337Z,16.30
2019-04-19T20:53:35.792Z,16.30
2019-04-19T20:58:38.774Z,16.30
2019-04-19T21:00:58.900Z,16.30
2019-04-19T21:03:30.889Z,16.20
2019-04-19T21:05:54.480Z,16.20
2019-04-19T21:08:23.348Z,16.20
2019-04-19T21:10:55.415Z,16.10
2019-04-19T21:13:19.576Z,16.10
2019-04-19T21:15:46.605Z,16.10
2019-04-19T21:18:17.942Z,16.10
2019-04-19T21:20:41.082Z,16.10
2019-04-19T21:23:16.124Z,16.20
2019-04-19T21:25:45.848Z,16.10
2019-04-19T21:28:03.727Z,16.10
2019-04-19T21:30:31.183Z,16.10
2019-04-19T21:33:04.817Z,16.10
2019-04-19T21:35:28.537Z,16.00
2019-04-19T21:37:54.777Z,16.00
2019-04-19T21:40:26.976Z,16.00
2019-04-19T21:42:52.894Z,16.00
2019-04-19T21:45:17.379Z,15.90
2019-04-19T21:47:50.003Z,15.90
2019-04-19T21:50:13.179Z,15.90
2019-04-19T21:52:43.564Z,15.90
2019-04-19T21:55:18.614Z,15.80
2019-04-19T21:57:38.095Z,15.80
2019-04-19T22:00:22.411Z,15.80
2019-04-19T22:02:47.882Z,15.80
2019-04-19T22:05:17.820Z,15.80
2019-04-19T22:07:47.320Z,15.70
2019-04-19T22:10:11.576Z,15.70
2019-04-19T22:12:38.630Z,15.70
2019-04-19T22:15:09.978Z,15.70
2019-04-19T22:17:33.959Z,15.60
2019-04-19T22:20:07.088Z,15.60
2019-04-19T22:22:31.728Z,15.60
2019-04-19T22:24:59.865Z,15.50
2019-04-19T22:27:25.372Z,15.50
2019-04-19T22:29:51.729Z,15.50
2019-04-19T22:32:20.618Z,15.50
2019-04-19T22:34:46.442Z,15.40
2019-04-19T22:37:15.699Z,15.40
2019-04-19T22:39:41.302Z,15.40
2019-04-19T22:42:08.641Z,15.40
2019-04-19T22:44:34.969Z,15.30
2019-04-19T22:47:01.628Z,15.30
2019-04-19T22:49:33.298Z,15.30
2019-04-19T22:51:56.448Z,15.30
2019-04-19T22:54:22.821Z,15.30
2019-04-19T22:56:57.323Z,15.30
2019-04-19T22:59:20.027Z,15.30
2019-04-19T23:01:50.451Z,15.20
2019-04-19T23:04:20.295Z,15.20
2019-04-19T23:06:44.736Z,15.20
2019-04-19T23:09:16.382Z,15.10
2019-04-19T23:11:39.544Z,15.00
2019-04-19T23:14:05.906Z,14.90
2019-04-19T23:16:35.177Z,14.90
2019-04-19T23:19:02.751Z,14.80
2019-04-19T23:21:28.814Z,14.70
2019-04-19T23:24:00.563Z,14.70
2019-04-19T23:26:43.842Z,14.60
2019-04-19T23:28:51.623Z,14.60
2019-04-19T23:31:21.093Z,14.60
2019-04-19T23:33:54.190Z,14.60
2019-04-19T23:36:19.709Z,14.70
2019-04-19T23:38:43.448Z,14.70
2019-04-19T23:41:10.917Z,14.60
2019-04-19T23:43:40.585Z,14.60
2019-04-19T23:46:10.846Z,14.50
2019-04-19T23:48:34.130Z,14.50
2019-04-19T23:51:02.105Z,14.60
2019-04-19T23:53:30.899Z,14.60
2019-04-19T23:55:56.436Z,14.70
2019-04-19T23:58:28.557Z,14.80
